createdAt,value
2017-10-10T00:00:02.345Z,87.1
2017-10-10T00:01:04.774Z,87.1
2017-10-10T00:02:07.191Z,87.1
2017-10-10T00:03:09.618Z,87.1
2017-10-10T00:04:12.044Z,87
2017-10-10T00:05:14.478Z,87.2
2017-10-10T00:06:16.909Z,87.2
2017-10-10T00:07:19.334Z,87.2
2017-10-10T00:08:22.124Z,87.3
2017-10-10T00:09:24.560Z,87.3
2017-10-10T00:10:26.978Z,87.3
2017-10-10T00:11:29.414Z,87.3
2017-10-10T00:12:31.834Z,87.4
2017-10-10T00:13:34.615Z,87.5
2017-10-10T00:14:37.039Z,87.5
2017-10-10T00:15:39.839Z,87.5
2017-10-10T00:16:42.271Z,87.5
2017-10-10T00:17:44.695Z,87.5
2017-10-10T00:18:47.120Z,87.4
2017-10-10T00:19:49.913Z,87.5
2017-10-10T00:20:52.357Z,87.5
2017-10-10T00:21:54.777Z,87.5
2017-10-10T00:22:57.205Z,87.5
2017-10-10T00:23:59.632Z,87.5
2017-10-10T00:25:02.059Z,87.5
2017-10-10T00:26:04.848Z,87.6
2017-10-10T00:27:07.276Z,87.6
2017-10-10T00:28:09.698Z,87.6
2017-10-10T00:29:12.117Z,87.6
2017-10-10T00:30:14.552Z,87.6
2017-10-10T00:31:17.342Z,87.6
2017-10-10T00:32:19.768Z,87.6
2017-10-10T00:33:22.184Z,87.6
2017-10-10T00:34:24.622Z,87.5
2017-10-10T00:35:27.062Z,87.4
2017-10-10T00:36:29.487Z,87.5
2017-10-10T00:37:31.921Z,87.4
2017-10-10T00:38:34.347Z,87.5
2017-10-10T00:39:36.772Z,87.6
2017-10-10T00:40:39.203Z,87.5
2017-10-10T00:41:41.620Z,87.5
2017-10-10T00:42:44.050Z,87.6
2017-10-10T00:43:46.486Z,87.6
2017-10-10T00:44:49.649Z,87.5
2017-10-10T00:45:52.081Z,87.4
2017-10-10T00:46:54.509Z,87.4
2017-10-10T00:47:56.941Z,87.4
2017-10-10T00:48:59.360Z,87.4
2017-10-10T00:50:02.159Z,87.4
2017-10-10T00:51:04.948Z,87.4
2017-10-10T00:52:07.369Z,87.3
2017-10-10T00:53:09.791Z,87.3
2017-10-10T00:54:12.230Z,87.3
2017-10-10T00:55:14.655Z,87.2
2017-10-10T00:56:17.448Z,87.3
2017-10-10T00:57:21.213Z,87.3
2017-10-10T00:58:23.591Z,87.4
2017-10-10T00:59:26.020Z,87.3
2017-10-10T01:00:28.807Z,87.4
2017-10-10T01:01:31.233Z,87.4
2017-10-10T01:02:33.667Z,87.3
2017-10-10T01:03:36.088Z,87.4
2017-10-10T01:04:38.509Z,87.4
2017-10-10T01:05:40.946Z,87.5
2017-10-10T01:06:43.377Z,87.4
2017-10-10T01:07:45.795Z,87.4
2017-10-10T01:08:48.221Z,87.4
2017-10-10T01:09:50.641Z,87.5
2017-10-10T01:10:53.411Z,87.6
2017-10-10T01:11:56.563Z,87.7
2017-10-10T01:12:59.344Z,87.7
2017-10-10T01:14:02.122Z,87.8
2017-10-10T01:15:04.554Z,87.8
2017-10-10T01:16:06.977Z,87.8
2017-10-10T01:17:09.402Z,87.7
2017-10-10T01:18:11.818Z,87.7
2017-10-10T01:19:14.245Z,87.6
2017-10-10T01:20:16.672Z,87.6
2017-10-10T01:21:19.100Z,87.5
2017-10-10T01:22:21.535Z,87.6
2017-10-10T01:23:24.321Z,87.6
2017-10-10T01:24:26.748Z,87.6
2017-10-10T01:25:29.191Z,87.5
2017-10-10T01:26:31.621Z,87.6
2017-10-10T01:27:34.039Z,87.6
2017-10-10T01:28:36.467Z,87.6
2017-10-10T01:29:38.903Z,87.6
2017-10-10T01:30:41.333Z,87.5
2017-10-10T01:31:43.769Z,87.6
2017-10-10T01:32:46.179Z,87.5
2017-10-10T01:33:48.604Z,87.5
2017-10-10T01:34:51.035Z,87.5
2017-10-10T01:35:53.457Z,87.5
2017-10-10T01:36:55.886Z,87.6
2017-10-10T01:37:58.316Z,87.6
2017-10-10T01:39:00.740Z,87.6
2017-10-10T01:40:03.181Z,87.5
2017-10-10T01:41:05.992Z,87.5
2017-10-10T01:42:08.412Z,87.4
2017-10-10T01:43:10.844Z,87.4
2017-10-10T01:44:13.642Z,87.2
2017-10-10T01:45:16.067Z,87.3
2017-10-10T01:46:18.498Z,87.3
2017-10-10T01:47:21.293Z,87.3
2017-10-10T01:48:24.081Z,87.3
2017-10-10T01:49:26.499Z,87.3
2017-10-10T01:50:28.934Z,87.2
2017-10-10T01:51:31.357Z,87.3
2017-10-10T01:52:33.791Z,87.2
2017-10-10T01:53:36.215Z,87.2
2017-10-10T01:54:38.986Z,87.2
2017-10-10T01:55:41.417Z,87.2
2017-10-10T01:56:43.856Z,87.2
2017-10-10T01:57:46.281Z,87.1
2017-10-10T01:58:49.073Z,87.1
2017-10-10T01:59:51.507Z,87.2
2017-10-10T02:00:53.925Z,87.3
2017-10-10T02:01:56.348Z,87.3
2017-10-10T02:02:58.771Z,87.3
2017-10-10T02:04:01.200Z,87.4
2017-10-10T02:05:03.630Z,87.2
2017-10-10T02:06:06.061Z,87.2
2017-10-10T02:07:08.485Z,87.2
2017-10-10T02:08:10.923Z,87.3
2017-10-10T02:09:13.354Z,87.3
2017-10-10T02:10:15.781Z,87.3
2017-10-10T02:11:18.208Z,87.3
2017-10-10T02:12:20.995Z,87.3
2017-10-10T02:13:23.415Z,87.4
2017-10-10T02:14:26.198Z,87.3
2017-10-10T02:15:28.974Z,87.3
2017-10-10T02:16:31.402Z,87.3
2017-10-10T02:17:33.826Z,87.3
2017-10-10T02:18:36.260Z,87.3
2017-10-10T02:19:38.679Z,87.3
2017-10-10T02:20:41.120Z,87.2
2017-10-10T02:21:43.541Z,87.2
2017-10-10T02:22:45.972Z,87.1
2017-10-10T02:23:48.397Z,87.2
2017-10-10T02:24:50.832Z,87
2017-10-10T02:25:53.254Z,87
2017-10-10T02:26:55.686Z,87
2017-10-10T02:27:58.114Z,87.1
2017-10-10T02:29:00.898Z,87.1
2017-10-10T02:30:03.692Z,87
2017-10-10T02:31:06.122Z,87.1
2017-10-10T02:32:08.539Z,87.2
2017-10-10T02:33:10.970Z,87.2
2017-10-10T02:34:13.406Z,87.2
2017-10-10T02:35:15.839Z,87.2
2017-10-10T02:36:18.273Z,87.2
2017-10-10T02:37:20.706Z,87.2
2017-10-10T02:38:23.491Z,87.1
2017-10-10T02:39:25.929Z,87.1
2017-10-10T02:40:28.715Z,87.1
2017-10-10T02:41:31.130Z,87
2017-10-10T02:42:33.559Z,87
2017-10-10T02:43:36.713Z,86.9
2017-10-10T02:44:39.485Z,86.8
2017-10-10T02:45:41.914Z,86.9
2017-10-10T02:46:44.705Z,87
2017-10-10T02:47:47.134Z,86.9
2017-10-10T02:48:50.264Z,86.9
2017-10-10T02:49:52.700Z,86.8
2017-10-10T02:50:55.132Z,86.8
2017-10-10T02:51:57.566Z,86.9
2017-10-10T02:52:59.988Z,86.9
2017-10-10T02:54:02.413Z,86.9
2017-10-10T02:55:04.831Z,86.7
2017-10-10T02:56:07.278Z,86.7
2017-10-10T02:57:09.690Z,86.7
2017-10-10T02:58:12.136Z,86.7
2017-10-10T02:59:14.564Z,86.7
2017-10-10T03:00:16.985Z,86.7
2017-10-10T03:01:19.424Z,86.6
2017-10-10T03:02:21.849Z,86.7
2017-10-10T03:03:24.267Z,86.7
2017-10-10T03:04:26.708Z,86.7
2017-10-10T03:05:29.135Z,86.6
2017-10-10T03:06:31.555Z,86.6
2017-10-10T03:07:33.995Z,86.6
2017-10-10T03:08:36.781Z,86.6
2017-10-10T03:09:39.201Z,86.7
2017-10-10T03:10:41.642Z,86.6
2017-10-10T03:11:44.072Z,86.5
2017-10-10T03:12:46.535Z,86.5
2017-10-10T03:13:49.325Z,86.5
2017-10-10T03:14:51.744Z,86.5
2017-10-10T03:15:54.533Z,86.6
2017-10-10T03:16:56.961Z,86.6
2017-10-10T03:17:59.390Z,86.5
2017-10-10T03:19:01.811Z,86.4
2017-10-10T03:20:04.614Z,86.5
2017-10-10T03:21:07.039Z,86.5
2017-10-10T03:22:09.809Z,86.4
2017-10-10T03:23:12.233Z,86.4
2017-10-10T03:24:14.653Z,86.5
2017-10-10T03:25:17.091Z,86.7
2017-10-10T03:26:19.517Z,86.6
2017-10-10T03:27:21.950Z,86.6
2017-10-10T03:28:24.754Z,86.6
2017-10-10T03:29:27.187Z,86.5
2017-10-10T03:30:29.623Z,86.4
2017-10-10T03:31:32.037Z,86.5
2017-10-10T03:32:34.843Z,86.5
2017-10-10T03:33:37.260Z,86.4
2017-10-10T03:34:39.687Z,86.3
2017-10-10T03:35:42.112Z,86.3
2017-10-10T03:36:44.535Z,86.4
2017-10-10T03:37:46.961Z,86.6
2017-10-10T03:38:49.394Z,86.7
2017-10-10T03:39:51.820Z,86.8
2017-10-10T03:40:54.634Z,86.8
2017-10-10T03:41:57.065Z,86.7
2017-10-10T03:42:59.498Z,86.7
2017-10-10T03:44:01.929Z,86.7
2017-10-10T03:45:04.372Z,86.6
2017-10-10T03:46:06.787Z,86.6
2017-10-10T03:47:09.212Z,86.5
2017-10-10T03:48:11.644Z,86.4
2017-10-10T03:49:14.069Z,86.5
2017-10-10T03:50:16.496Z,86.6
2017-10-10T03:51:18.932Z,86.5
2017-10-10T03:52:21.356Z,86.5
2017-10-10T03:53:23.807Z,86.6
2017-10-10T03:54:26.234Z,86.7
2017-10-10T03:55:29.005Z,86.8
2017-10-10T03:56:31.445Z,86.8
2017-10-10T03:57:33.871Z,86.7
2017-10-10T03:58:36.303Z,86.7
2017-10-10T03:59:38.735Z,86.8
2017-10-10T04:00:41.158Z,86.7
2017-10-10T04:01:43.963Z,86.7
2017-10-10T04:02:46.402Z,86.8
2017-10-10T04:03:49.201Z,86.8
2017-10-10T04:04:51.642Z,86.9
2017-10-10T04:05:54.062Z,86.9
2017-10-10T04:06:56.493Z,86.9
2017-10-10T04:07:58.924Z,86.9
2017-10-10T04:09:01.349Z,86.7
2017-10-10T04:10:03.774Z,86.7
2017-10-10T04:11:06.212Z,86.6
2017-10-10T04:12:09.005Z,86.5
2017-10-10T04:13:11.427Z,86.6
2017-10-10T04:14:13.890Z,86.6
2017-10-10T04:15:16.316Z,86.5
2017-10-10T04:16:18.890Z,86.4
2017-10-10T04:17:21.342Z,86.4
2017-10-10T04:18:23.779Z,86.4
2017-10-10T04:19:26.199Z,86.4
2017-10-10T04:20:28.637Z,86.4
2017-10-10T04:21:31.430Z,86.3
2017-10-10T04:22:33.871Z,86.4
2017-10-10T04:23:36.295Z,86.4
2017-10-10T04:24:38.730Z,86.4
2017-10-10T04:25:41.157Z,86.4
2017-10-10T04:26:43.588Z,86.5
2017-10-10T04:27:46.382Z,86.6
2017-10-10T04:28:48.811Z,86.5
2017-10-10T04:29:51.235Z,86.6
2017-10-10T04:30:53.676Z,86.8
2017-10-10T04:31:56.098Z,86.8
2017-10-10T04:32:58.876Z,86.9
2017-10-10T04:34:01.304Z,86.9
2017-10-10T04:35:03.727Z,86.8
2017-10-10T04:36:06.162Z,86.7
2017-10-10T04:37:08.598Z,86.7
2017-10-10T04:38:11.009Z,86.7
2017-10-10T04:39:13.794Z,86.6
2017-10-10T04:40:16.230Z,86.4
2017-10-10T04:41:18.652Z,86.4
2017-10-10T04:42:21.460Z,86.5
2017-10-10T04:43:24.271Z,86.5
2017-10-10T04:44:26.701Z,86.6
2017-10-10T04:45:29.124Z,86.6
2017-10-10T04:46:31.548Z,86.5
2017-10-10T04:47:34.330Z,86.5
2017-10-10T04:48:36.763Z,86.5
2017-10-10T04:49:39.543Z,86.6
2017-10-10T04:50:41.962Z,86.6
2017-10-10T04:51:44.393Z,86.7
2017-10-10T04:52:46.836Z,86.6
2017-10-10T04:53:49.255Z,86.7
2017-10-10T04:54:51.701Z,86.8
2017-10-10T04:55:54.133Z,86.8
2017-10-10T04:56:56.565Z,86.8
2017-10-10T04:57:59.349Z,86.8
2017-10-10T04:59:01.774Z,86.8
2017-10-10T05:00:04.203Z,86.8
2017-10-10T05:01:06.632Z,86.8
2017-10-10T05:02:09.058Z,86.7
2017-10-10T05:03:11.479Z,86.6
2017-10-10T05:04:13.919Z,86.6
2017-10-10T05:05:16.348Z,86.6
2017-10-10T05:06:18.784Z,86.6
2017-10-10T05:07:21.214Z,86.5
2017-10-10T05:08:24.008Z,86.6
2017-10-10T05:09:26.444Z,86.5
2017-10-10T05:10:28.861Z,86.5
2017-10-10T05:11:31.296Z,86.5
2017-10-10T05:12:33.719Z,86.5
2017-10-10T05:13:36.150Z,86.5
2017-10-10T05:14:38.585Z,86.4
2017-10-10T05:15:41.015Z,86.4
2017-10-10T05:16:43.437Z,86.5
2017-10-10T05:17:45.870Z,86.5
2017-10-10T05:18:48.286Z,86.4
2017-10-10T05:19:50.721Z,86.4
2017-10-10T05:20:53.154Z,86.5
2017-10-10T05:21:55.578Z,86.6
2017-10-10T05:22:58.007Z,86.6
2017-10-10T05:24:00.440Z,86.6
2017-10-10T05:25:02.867Z,86.5
2017-10-10T05:26:05.304Z,86.4
2017-10-10T05:27:07.727Z,86.4
2017-10-10T05:28:10.144Z,86.5
2017-10-10T05:29:12.584Z,86.5
2017-10-10T05:30:14.997Z,86.3
2017-10-10T05:31:17.425Z,86.3
2017-10-10T05:32:19.860Z,86.3
2017-10-10T05:33:22.283Z,86.2
2017-10-10T05:34:24.710Z,86.3
2017-10-10T05:35:27.155Z,86.4
2017-10-10T05:36:29.949Z,86.4
2017-10-10T05:37:32.739Z,86.6
2017-10-10T05:38:35.185Z,86.5
2017-10-10T05:39:37.589Z,86.5
2017-10-10T05:40:40.018Z,86.5
2017-10-10T05:41:42.446Z,86.4
2017-10-10T05:42:44.886Z,86.3
2017-10-10T05:43:47.312Z,86.5
2017-10-10T05:44:50.094Z,86.6
2017-10-10T05:45:52.517Z,86.6
2017-10-10T05:46:54.949Z,86.6
2017-10-10T05:47:57.376Z,86.5
2017-10-10T05:49:00.151Z,86.5
2017-10-10T05:50:02.570Z,86.6
2017-10-10T05:51:04.996Z,86.7
2017-10-10T05:52:07.419Z,86.6
2017-10-10T05:53:10.212Z,86.6
2017-10-10T05:54:12.628Z,86.7
2017-10-10T05:55:15.053Z,86.7
2017-10-10T05:56:17.837Z,86.8
2017-10-10T05:57:20.270Z,86.8
2017-10-10T05:58:22.685Z,86.8
2017-10-10T05:59:25.114Z,86.9
2017-10-10T06:00:27.547Z,87
2017-10-10T06:01:29.972Z,87
2017-10-10T06:02:32.408Z,87
2017-10-10T06:03:34.833Z,87
2017-10-10T06:04:37.253Z,87.1
2017-10-10T06:05:39.688Z,87.3
2017-10-10T06:06:42.116Z,87.3
2017-10-10T06:07:44.537Z,87.6
2017-10-10T06:08:46.957Z,87.6
2017-10-10T06:09:49.477Z,87.5
2017-10-10T06:10:51.916Z,87.3
2017-10-10T06:11:54.345Z,87.3
2017-10-10T06:12:56.778Z,87.3
2017-10-10T06:13:59.201Z,87.3
2017-10-10T06:15:01.988Z,87.5
2017-10-10T06:16:04.760Z,87.4
2017-10-10T06:17:07.188Z,87.5
2017-10-10T06:18:09.604Z,87.5
2017-10-10T06:19:12.033Z,87.5
2017-10-10T06:20:14.460Z,87.5
2017-10-10T06:21:16.896Z,87.6
2017-10-10T06:22:19.330Z,87.5
2017-10-10T06:23:21.758Z,87.6
2017-10-10T06:24:24.183Z,87.4
2017-10-10T06:25:26.973Z,87.4
2017-10-10T06:26:29.395Z,87.4
2017-10-10T06:27:31.818Z,87.4
2017-10-10T06:28:34.254Z,87.4
2017-10-10T06:29:36.679Z,87.3
2017-10-10T06:30:39.109Z,87.3
2017-10-10T06:31:41.550Z,87.3
2017-10-10T06:32:43.962Z,87.5
2017-10-10T06:33:46.739Z,87.5
2017-10-10T06:34:49.172Z,87.5
2017-10-10T06:35:51.592Z,87.7
2017-10-10T06:36:54.386Z,87.8
2017-10-10T06:37:56.813Z,87.8
2017-10-10T06:38:59.241Z,87.8
2017-10-10T06:40:01.672Z,87.8
2017-10-10T06:41:04.098Z,87.6
2017-10-10T06:42:06.537Z,87.6
2017-10-10T06:43:08.965Z,87.8
2017-10-10T06:44:11.382Z,87.9
2017-10-10T06:45:13.812Z,87.9
2017-10-10T06:46:16.585Z,88
2017-10-10T06:47:19.012Z,88
2017-10-10T06:48:21.440Z,88
2017-10-10T06:49:24.219Z,87.9
2017-10-10T06:50:26.650Z,87.9
2017-10-10T06:51:29.089Z,87.9
2017-10-10T06:52:31.513Z,87.8
2017-10-10T06:53:33.941Z,87.7
2017-10-10T06:54:36.367Z,87.6
2017-10-10T06:55:38.788Z,87.6
2017-10-10T06:56:41.588Z,87.6
2017-10-10T06:57:44.025Z,87.7
2017-10-10T06:58:46.441Z,87.8
2017-10-10T06:59:48.876Z,87.8
2017-10-10T07:00:51.312Z,87.7
2017-10-10T07:01:53.730Z,87.7
2017-10-10T07:02:56.160Z,87.6
2017-10-10T07:03:58.577Z,87.6
2017-10-10T07:05:00.998Z,87.7
2017-10-10T07:06:03.433Z,87.8
2017-10-10T07:07:05.860Z,87.8
2017-10-10T07:08:08.282Z,87.9
2017-10-10T07:09:11.053Z,87.8
2017-10-10T07:10:13.479Z,87.8
2017-10-10T07:11:16.258Z,87.6
2017-10-10T07:12:18.684Z,87.6
2017-10-10T07:13:21.118Z,87.7
2017-10-10T07:14:23.545Z,87.7
2017-10-10T07:15:25.958Z,87.8
2017-10-10T07:16:28.401Z,88
2017-10-10T07:17:30.822Z,88
2017-10-10T07:18:33.256Z,88.1
2017-10-10T07:19:35.688Z,88.1
2017-10-10T07:20:38.468Z,88
2017-10-10T07:21:40.899Z,87.9
2017-10-10T07:22:43.339Z,88
2017-10-10T07:23:46.126Z,88.2
2017-10-10T07:24:48.904Z,88.2
2017-10-10T07:25:51.336Z,88.3
2017-10-10T07:26:53.765Z,88.2
2017-10-10T07:27:56.196Z,88.3
2017-10-10T07:28:58.627Z,88.3
2017-10-10T07:30:01.045Z,88.3
2017-10-10T07:31:03.484Z,88.3
2017-10-10T07:32:05.900Z,88.4
2017-10-10T07:33:08.330Z,88.4
2017-10-10T07:34:10.752Z,88.6
2017-10-10T07:35:13.182Z,88.7
2017-10-10T07:36:15.612Z,88.8
2017-10-10T07:37:18.058Z,88.7
2017-10-10T07:38:20.830Z,88.7
2017-10-10T07:39:23.269Z,88.6
2017-10-10T07:40:25.691Z,88.8
2017-10-10T07:41:28.113Z,88.9
2017-10-10T07:42:30.541Z,89.1
2017-10-10T07:43:32.975Z,89
2017-10-10T07:44:35.411Z,88.9
2017-10-10T07:45:37.854Z,88.7
2017-10-10T07:46:40.291Z,88.8
2017-10-10T07:47:42.736Z,88.8
2017-10-10T07:48:45.191Z,88.8
2017-10-10T07:49:47.626Z,88.7
2017-10-10T07:50:50.055Z,88.5
2017-10-10T07:51:52.492Z,88.5
2017-10-10T07:52:54.924Z,88.4
2017-10-10T07:53:57.393Z,88.4
2017-10-10T07:54:59.851Z,88.5
2017-10-10T07:56:02.275Z,88.4
2017-10-10T07:57:04.718Z,88.2
2017-10-10T07:58:07.153Z,88.2
2017-10-10T07:59:09.935Z,88.2
2017-10-10T08:00:12.366Z,88.2
2017-10-10T08:01:14.795Z,88.2
2017-10-10T08:02:17.225Z,88.2
2017-10-10T08:03:20.049Z,88.2
2017-10-10T08:04:22.489Z,88.1
2017-10-10T08:05:24.920Z,88.2
2017-10-10T08:06:27.356Z,88.2
2017-10-10T08:07:30.153Z,88.2
2017-10-10T08:08:32.582Z,88.3
2017-10-10T08:09:35.382Z,88.4
2017-10-10T08:10:37.821Z,88.5
2017-10-10T08:11:40.246Z,88.4
2017-10-10T08:12:43.028Z,88.3
2017-10-10T08:13:45.463Z,88.4
2017-10-10T08:14:47.898Z,88.5
2017-10-10T08:15:50.322Z,88.5
2017-10-10T08:16:52.757Z,88.6
2017-10-10T08:17:55.547Z,88.5
2017-10-10T08:18:57.978Z,88.2
2017-10-10T08:20:00.407Z,88.2
2017-10-10T08:21:03.216Z,88.2
2017-10-10T08:22:05.612Z,88.4
2017-10-10T08:23:08.051Z,88.6
2017-10-10T08:24:10.488Z,88.3
2017-10-10T08:25:12.922Z,88.3
2017-10-10T08:26:15.346Z,88.2
2017-10-10T08:27:17.776Z,88.2
2017-10-10T08:28:20.196Z,88.3
2017-10-10T08:29:22.642Z,88.5
2017-10-10T08:30:25.060Z,88.5
2017-10-10T08:31:27.495Z,88.5
2017-10-10T08:32:29.930Z,88.4
2017-10-10T08:33:32.356Z,88.5
2017-10-10T08:34:34.788Z,88.6
2017-10-10T08:35:37.226Z,88.5
2017-10-10T08:36:39.646Z,88.4
2017-10-10T08:37:42.076Z,88.4
2017-10-10T08:38:44.514Z,88.5
2017-10-10T08:39:46.957Z,88.5
2017-10-10T08:40:49.752Z,88.5
2017-10-10T08:41:52.189Z,88.6
2017-10-10T08:42:54.630Z,88.6
2017-10-10T08:43:57.073Z,88.7
2017-10-10T08:44:59.889Z,88.5
2017-10-10T08:46:02.341Z,88.5
2017-10-10T08:47:04.772Z,88.5
2017-10-10T08:48:07.208Z,88.6
2017-10-10T08:49:09.647Z,88.6
2017-10-10T08:50:12.069Z,88.6
2017-10-10T08:51:14.500Z,88.5
2017-10-10T08:52:16.928Z,88.5
2017-10-10T08:53:19.366Z,88.5
2017-10-10T08:54:21.785Z,88.3
2017-10-10T08:55:24.211Z,88.7
2017-10-10T08:56:26.642Z,88.4
2017-10-10T08:57:29.067Z,88.3
2017-10-10T08:58:31.498Z,88.3
2017-10-10T08:59:33.931Z,88.4
2017-10-10T09:00:36.365Z,88.5
2017-10-10T09:01:38.808Z,88.6
2017-10-10T09:02:41.242Z,88.7
2017-10-10T09:03:43.680Z,88.5
2017-10-10T09:04:46.117Z,88.6
2017-10-10T09:05:48.539Z,88.7
2017-10-10T09:06:50.967Z,88.7
2017-10-10T09:07:53.426Z,88.7
2017-10-10T09:08:55.880Z,88.8
2017-10-10T09:09:59.078Z,88.7
2017-10-10T09:11:01.545Z,88.6
2017-10-10T09:12:03.988Z,88.8
2017-10-10T09:13:06.783Z,88.5
2017-10-10T09:14:09.232Z,88.6
2017-10-10T09:15:11.687Z,88.3
2017-10-10T09:16:14.126Z,88.4
2017-10-10T09:17:16.558Z,88.3
2017-10-10T09:18:18.992Z,88.7
2017-10-10T09:19:21.427Z,88.6
2017-10-10T09:20:24.236Z,88.3
2017-10-10T09:21:26.656Z,88.4
2017-10-10T09:22:29.087Z,88.5
2017-10-10T09:23:31.521Z,88.2
2017-10-10T09:24:33.961Z,88.2
2017-10-10T09:25:36.765Z,88.5
2017-10-10T09:26:39.196Z,88.1
2017-10-10T09:27:41.638Z,88
2017-10-10T09:28:44.088Z,88.2
2017-10-10T09:29:46.549Z,88.5
2017-10-10T09:30:49.013Z,88.3
2017-10-10T09:31:51.465Z,88.4
2017-10-10T09:32:53.933Z,88.2
2017-10-10T09:33:56.391Z,88.3
2017-10-10T09:34:58.846Z,88.2
2017-10-10T09:36:01.285Z,88.2
2017-10-10T09:37:04.085Z,88.2
2017-10-10T09:38:06.530Z,88.1
2017-10-10T09:39:09.368Z,88
2017-10-10T09:40:12.170Z,88.2
2017-10-10T09:41:14.634Z,88.3
2017-10-10T09:42:17.437Z,88.4
2017-10-10T09:43:19.857Z,88.3
2017-10-10T09:44:22.306Z,88.3
2017-10-10T09:45:24.744Z,88.6
2017-10-10T09:46:27.219Z,88.5
2017-10-10T09:47:29.675Z,88.6
2017-10-10T09:48:32.146Z,88.6
2017-10-10T09:49:34.601Z,88.5
2017-10-10T09:50:37.070Z,88.2
2017-10-10T09:51:39.520Z,88
2017-10-10T09:52:41.986Z,88.3
2017-10-10T09:53:44.440Z,88.2
2017-10-10T09:54:46.896Z,88.3
2017-10-10T09:55:49.353Z,88.5
2017-10-10T09:56:52.164Z,88.6
2017-10-10T09:57:54.629Z,88.7
2017-10-10T09:58:57.065Z,88.8
2017-10-10T09:59:59.489Z,88.6
2017-10-10T10:01:02.279Z,88.5
2017-10-10T10:02:04.704Z,88.4
2017-10-10T10:03:07.156Z,88.3
2017-10-10T10:04:09.921Z,88.3
2017-10-10T10:05:12.360Z,88.7
2017-10-10T10:06:15.173Z,88.8
2017-10-10T10:07:17.604Z,88.6
2017-10-10T10:08:20.040Z,88.3
2017-10-10T10:09:22.475Z,88.3
2017-10-10T10:10:25.261Z,88.5
2017-10-10T10:11:28.054Z,88.8
2017-10-10T10:12:30.483Z,89.2
2017-10-10T10:13:32.916Z,89.4
2017-10-10T10:14:35.352Z,89.3
2017-10-10T10:15:37.792Z,89
2017-10-10T10:16:40.577Z,89
2017-10-10T10:17:43.433Z,89.1
2017-10-10T10:18:45.874Z,88.9
2017-10-10T10:19:48.313Z,88.5
2017-10-10T10:20:50.747Z,88.2
2017-10-10T10:21:53.183Z,88.1
2017-10-10T10:22:55.623Z,88.2
2017-10-10T10:23:58.058Z,88.2
2017-10-10T10:25:00.492Z,88.5
2017-10-10T10:26:02.920Z,88.2
2017-10-10T10:27:05.349Z,88.2
2017-10-10T10:28:07.800Z,88
2017-10-10T10:29:10.224Z,87.8
2017-10-10T10:30:12.659Z,87.9
2017-10-10T10:31:15.446Z,87.6
2017-10-10T10:32:17.888Z,87.5
2017-10-10T10:33:20.682Z,87.4
2017-10-10T10:34:23.124Z,87.4
2017-10-10T10:35:25.904Z,87.6
2017-10-10T10:36:28.343Z,87.5
2017-10-10T10:37:30.779Z,87.3
2017-10-10T10:38:33.213Z,87
2017-10-10T10:39:35.655Z,87.1
2017-10-10T10:40:38.445Z,87.3
2017-10-10T10:41:40.871Z,87.4
2017-10-10T10:42:43.307Z,87.4
2017-10-10T10:43:45.743Z,87
2017-10-10T10:44:48.173Z,87
2017-10-10T10:45:50.612Z,87
2017-10-10T10:46:53.040Z,87
2017-10-10T10:47:55.472Z,87
2017-10-10T10:48:57.913Z,87
2017-10-10T10:50:00.349Z,87.1
2017-10-10T10:51:02.780Z,87.3
2017-10-10T10:52:05.234Z,87
2017-10-10T10:53:07.664Z,87.1
2017-10-10T10:54:10.088Z,87.2
2017-10-10T10:55:12.526Z,87.2
2017-10-10T10:56:15.321Z,87.1
2017-10-10T10:57:17.758Z,87.3
2017-10-10T10:58:20.194Z,87.3
2017-10-10T10:59:22.620Z,87.4
2017-10-10T11:00:25.064Z,87.4
2017-10-10T11:01:27.505Z,87.3
2017-10-10T11:02:29.941Z,87.3
2017-10-10T11:03:32.370Z,87.3
2017-10-10T11:04:34.805Z,87.1
2017-10-10T11:05:37.248Z,87
2017-10-10T11:06:39.672Z,86.6
2017-10-10T11:07:42.101Z,86.5
2017-10-10T11:08:44.545Z,86.7
2017-10-10T11:09:46.976Z,86.4
2017-10-10T11:10:49.409Z,86.4
2017-10-10T11:11:51.850Z,86.4
2017-10-10T11:12:54.268Z,86.5
2017-10-10T11:13:56.714Z,86.6
2017-10-10T11:14:59.156Z,86.8
2017-10-10T11:16:01.578Z,87
2017-10-10T11:17:04.012Z,87
2017-10-10T11:18:06.457Z,87.1
2017-10-10T11:19:08.880Z,87.3
2017-10-10T11:20:11.326Z,87.2
2017-10-10T11:21:13.760Z,87.3
2017-10-10T11:22:16.194Z,87.1
2017-10-10T11:23:18.635Z,87
2017-10-10T11:24:21.066Z,87
2017-10-10T11:25:23.494Z,87
2017-10-10T11:26:25.921Z,87
2017-10-10T11:27:28.369Z,87.1
2017-10-10T11:28:30.803Z,87.2
2017-10-10T11:29:33.600Z,87.2
2017-10-10T11:30:36.029Z,87
2017-10-10T11:31:38.467Z,86.9
2017-10-10T11:32:40.902Z,86.9
2017-10-10T11:33:43.335Z,86.9
2017-10-10T11:34:45.755Z,86.8
2017-10-10T11:35:48.187Z,86.7
2017-10-10T11:36:50.622Z,86.7
2017-10-10T11:37:53.062Z,86.9
2017-10-10T11:38:55.496Z,86.8
2017-10-10T11:39:58.274Z,86.7
2017-10-10T11:41:00.718Z,86.5
2017-10-10T11:42:03.171Z,86.4
2017-10-10T11:43:05.977Z,86.4
2017-10-10T11:44:08.414Z,86.5
2017-10-10T11:45:10.841Z,86.7
2017-10-10T11:46:13.274Z,87
2017-10-10T11:47:15.714Z,87
2017-10-10T11:48:18.140Z,87.4
2017-10-10T11:49:20.566Z,87.5
2017-10-10T11:50:22.999Z,87.5
2017-10-10T11:51:25.435Z,87.5
2017-10-10T11:52:28.231Z,87.6
2017-10-10T11:53:30.651Z,87.4
2017-10-10T11:54:33.088Z,87.4
2017-10-10T11:55:35.531Z,87.4
2017-10-10T11:56:37.972Z,87.2
2017-10-10T11:57:40.407Z,87.2
2017-10-10T11:58:42.844Z,87.2
2017-10-10T11:59:45.288Z,87
2017-10-10T12:00:47.721Z,86.6
2017-10-10T12:01:50.161Z,86.7
2017-10-10T12:02:52.585Z,86.8
2017-10-10T12:03:55.022Z,86.8
2017-10-10T12:04:57.808Z,86.7
2017-10-10T12:06:00.613Z,86.6
2017-10-10T12:07:03.413Z,86.6
2017-10-10T12:08:05.841Z,86.7
2017-10-10T12:09:08.283Z,86.7
2017-10-10T12:10:10.713Z,86.7
2017-10-10T12:11:13.163Z,86.7
2017-10-10T12:12:15.589Z,86.7
2017-10-10T12:13:18.011Z,86.4
2017-10-10T12:14:20.435Z,86.1
2017-10-10T12:15:22.865Z,85.9
2017-10-10T12:16:25.656Z,85.7
2017-10-10T12:17:28.088Z,85.8
2017-10-10T12:18:30.524Z,86
2017-10-10T12:19:32.952Z,86
2017-10-10T12:20:35.388Z,86.1
2017-10-10T12:21:37.821Z,85.9
2017-10-10T12:22:40.255Z,85.9
2017-10-10T12:23:42.690Z,86.1
2017-10-10T12:24:45.135Z,86.3
2017-10-10T12:25:47.566Z,86.4
2017-10-10T12:26:50.000Z,86.4
2017-10-10T12:27:52.791Z,86.5
2017-10-10T12:28:55.225Z,86.3
2017-10-10T12:29:58.011Z,86.2
2017-10-10T12:31:00.805Z,86.1
2017-10-10T12:32:03.222Z,86.2
2017-10-10T12:33:05.655Z,86.1
2017-10-10T12:34:08.096Z,86.1
2017-10-10T12:35:10.522Z,86
2017-10-10T12:36:12.955Z,86.2
2017-10-10T12:37:15.399Z,86.3
2017-10-10T12:38:17.835Z,86.3
2017-10-10T12:39:20.268Z,86.1
2017-10-10T12:40:22.700Z,86.2
2017-10-10T12:41:25.139Z,86.2
2017-10-10T12:42:27.570Z,86.3
2017-10-10T12:43:30.008Z,86.3
2017-10-10T12:44:32.435Z,86.4
2017-10-10T12:45:34.868Z,86.5
2017-10-10T12:46:37.300Z,86.4
2017-10-10T12:47:39.746Z,86.1
2017-10-10T12:48:42.169Z,86.2
2017-10-10T12:49:44.614Z,86.1
2017-10-10T12:50:47.036Z,86.3
2017-10-10T12:51:49.473Z,86.4
2017-10-10T12:52:51.913Z,86.5
2017-10-10T12:53:54.344Z,86.4
2017-10-10T12:54:56.780Z,86.5
2017-10-10T12:55:59.218Z,86.6
2017-10-10T12:57:01.662Z,86.6
2017-10-10T12:58:04.113Z,86.6
2017-10-10T12:59:06.547Z,86.8
2017-10-10T13:00:09.340Z,86.8
2017-10-10T13:01:11.771Z,86.9
2017-10-10T13:02:14.208Z,86.8
2017-10-10T13:03:16.647Z,86.8
2017-10-10T13:04:19.071Z,86.8
2017-10-10T13:05:21.515Z,86.7
2017-10-10T13:06:23.950Z,86.9
2017-10-10T13:07:26.386Z,87
2017-10-10T13:08:28.834Z,86.9
2017-10-10T13:09:31.252Z,86.8
2017-10-10T13:10:33.687Z,86.8
2017-10-10T13:11:36.118Z,86.8
2017-10-10T13:12:38.895Z,86.6
2017-10-10T13:13:41.327Z,86.7
2017-10-10T13:14:43.757Z,86.9
2017-10-10T13:15:46.192Z,87
2017-10-10T13:16:48.630Z,86.8
2017-10-10T13:17:51.060Z,86.6
2017-10-10T13:19:44.800Z,86.7
2017-10-10T13:20:47.191Z,86.9
2017-10-10T13:21:49.920Z,87.4
2017-10-10T13:22:52.285Z,87.3
2017-10-10T13:23:54.665Z,87.2
2017-10-10T13:24:57.061Z,87.4
2017-10-10T13:25:59.439Z,87.6
2017-10-10T13:27:01.823Z,87.7
2017-10-10T13:28:04.404Z,87.6
2017-10-10T13:29:06.785Z,87.6
2017-10-10T13:30:09.175Z,87.6
2017-10-10T13:31:11.547Z,87.3
2017-10-10T13:32:13.918Z,87.5
2017-10-10T13:33:16.298Z,87.5
2017-10-10T13:34:19.390Z,87
2017-10-10T13:35:21.776Z,86.8
2017-10-10T13:36:24.159Z,86.2
2017-10-10T13:37:26.541Z,86.1
2017-10-10T13:38:28.923Z,85.9
2017-10-10T13:39:31.318Z,86.1
2017-10-10T13:40:33.700Z,86.3
2017-10-10T13:41:36.071Z,86.2
2017-10-10T13:42:38.454Z,86.5
2017-10-10T13:43:41.183Z,86.7
2017-10-10T13:44:43.573Z,86.5
2017-10-10T13:45:45.947Z,86.4
2017-10-10T13:46:48.328Z,86.4
2017-10-10T13:47:50.717Z,86.1
2017-10-10T13:48:53.115Z,85.8
2017-10-10T13:49:55.484Z,85.6
2017-10-10T13:50:57.864Z,85.7
2017-10-10T13:52:00.242Z,85.8
2017-10-10T13:53:02.613Z,85.9
2017-10-10T13:54:05.003Z,86.1
2017-10-10T13:55:07.390Z,86.3